Time;durP1;ratioP1;P1;durP2;ratioP2;P2;SDS_P1;SDS_P2;PMS_P1;PMS_P2;Temp;Humidity;BMP_temperature;BMP_pressure;BME280_temperature;BME280_humidity;BME280_pressure;Samples;Min_cycle;Max_cycle;Signal;HPM_P1;HPM_P2
2021/08/29 00:01:32;;;;;;;11.88;4.10;;;;;;;;;;5039759;28;20033;-67
2021/08/29 00:03:59;;;;;;;7.68;4.10;;;;;;;;;;5040488;28;20078;-66
2021/08/29 00:06:25;;;;;;;8.90;4.82;;;;;;;;;;5032817;28;20057;-69
2021/08/29 00:08:51;;;;;;;6.43;4.25;;;;;;;;;;5028467;28;20570;-68
2021/08/29 00:11:17;;;;;;;7.00;4.35;;;;;;;;;;5031943;28;20033;-67
2021/08/29 00:13:43;;;;;;;8.88;4.30;;;;;;;;;;5034129;28;20074;-67
2021/08/29 00:16:10;;;;;;;7.95;4.07;;;;;;;;;;5027186;28;20075;-67
2021/08/29 00:18:36;;;;;;;6.72;4.22;;;;;;;;;;5025871;28;20044;-67
2021/08/29 00:21:02;;;;;;;7.50;4.60;;;;;;;;;;5027113;28;20031;-68
2021/08/29 00:23:28;;;;;;;9.80;4.15;;;;;;;;;;5027623;28;20062;-67
2021/08/29 00:25:54;;;;;;;8.13;3.95;;;;;;;;;;5032332;28;20033;-67
2021/08/29 00:28:20;;;;;;;9.15;3.90;;;;;;;;;;5033358;28;20049;-67
2021/08/29 00:30:47;;;;;;;11.90;4.78;;;;;;;;;;5029740;28;20041;-67
2021/08/29 00:33:13;;;;;;;16.40;5.15;;;;;;;;;;5033544;28;20037;-67
2021/08/29 00:35:39;;;;;;;9.90;5.40;;;;;;;;;;5028914;28;20029;-68
2021/08/29 00:38:05;;;;;;;10.57;4.45;;;;;;;;;;5030926;28;20040;-68
2021/08/29 00:40:31;;;;;;;7.18;4.32;;;;;;;;;;5028040;28;20183;-67
2021/08/29 00:42:57;;;;;;;8.75;4.47;;;;;;;;;;5037880;28;20037;-67
2021/08/29 00:45:26;;;;;;;16.40;5.60;;;;;;;;;;5028501;28;20032;-67
2021/08/29 00:47:53;;;;;;;10.90;4.90;;;;;;;;;;5031884;28;20026;-67
2021/08/29 00:50:19;;;;;;;8.23;3.92;;;;;;;;;;5027276;28;20068;-67
2021/08/29 00:52:45;;;;;;;5.95;4.10;;;;;;;;;;5030664;28;20539;-66
2021/08/29 00:55:12;;;;;;;73.85;9.55;;;;;;;;;;5023414;28;20041;-69
2021/08/29 00:57:41;;;;;;;12.75;4.57;;;;;;;;;;5032269;28;20032;-66
2021/08/29 01:00:10;;;;;;;14.85;5.30;;;;;;;;;;5036196;28;20086;-67
2021/08/29 01:02:36;;;;;;;13.13;5.05;;;;;;;;;;5041002;28;20052;-67
2021/08/29 01:05:08;;;;;;;7.45;4.60;;;;;;;;;;5038484;28;20393;-67
2021/08/29 01:07:37;;;;;;;12.05;4.45;;;;;;;;;;5031189;28;20029;-68
2021/08/29 01:10:07;;;;;;;6.47;3.80;;;;;;;;;;5033706;28;20037;-68
2021/08/29 01:12:33;;;;;;;14.50;4.90;;;;;;;;;;5039919;28;20043;-67
2021/08/29 01:15:01;;;;;;;14.15;4.60;;;;;;;;;;5041796;28;20413;-67
2021/08/29 01:17:29;;;;;;;7.28;3.80;;;;;;;;;;5034180;28;20029;-68
2021/08/29 01:20:05;;;;;;;6.95;3.85;;;;;;;;;;5036148;28;20407;-67
2021/08/29 01:22:33;;;;;;;11.45;4.40;;;;;;;;;;5036991;28;20028;-67
2021/08/29 01:25:00;;;;;;;7.72;4.03;;;;;;;;;;5038573;28;20029;-67
2021/08/29 01:27:30;;;;;;;5.57;3.83;;;;;;;;;;5036733;28;20798;-67
2021/08/29 01:29:57;;;;;;;13.43;4.63;;;;;;;;;;5039981;28;20635;-66
2021/08/29 01:32:23;;;;;;;10.65;4.30;;;;;;;;;;5034837;28;20418;-67
2021/08/29 01:34:50;;;;;;;8.90;4.75;;;;;;;;;;5034270;28;20036;-67
2021/08/29 01:37:17;;;;;;;9.13;4.63;;;;;;;;;;5037054;28;20025;-68
2021/08/29 01:39:43;;;;;;;7.53;4.70;;;;;;;;;;5025369;28;20417;-68
2021/08/29 01:42:10;;;;;;;15.63;4.82;;;;;;;;;;5030645;28;20037;-67
2021/08/29 01:44:36;;;;;;;6.88;4.30;;;;;;;;;;5031445;28;20036;-67
2021/08/29 01:47:03;;;;;;;7.13;4.53;;;;;;;;;;5036712;28;20029;-67
2021/08/29 01:49:29;;;;;;;10.25;4.78;;;;;;;;;;5032980;28;20040;-67
2021/08/29 01:51:56;;;;;;;7.60;4.25;;;;;;;;;;5038031;28;20024;-68
2021/08/29 01:54:22;;;;;;;9.40;4.53;;;;;;;;;;5035063;28;20036;-67
2021/08/29 01:57:07;;;;;;;6.85;4.40;;;;;;;;;;5037408;28;20073;-68
2021/08/29 01:59:33;;;;;;;6.50;4.80;;;;;;;;;;5033473;28;20079;-67
2021/08/29 02:02:00;;;;;;;6.43;4.82;;;;;;;;;;5035535;28;20392;-67
2021/08/29 02:04:26;;;;;;;5.75;4.68;;;;;;;;;;5029436;28;20679;-66
2021/08/29 02:07:13;;;;;;;11.25;4.35;;;;;;;;;;5028047;28;20219;-67
2021/08/29 02:10:02;;;;;;;8.30;4.47;;;;;;;;;;5036219;28;20063;-67
2021/08/29 02:12:32;;;;;;;7.75;4.63;;;;;;;;;;5027573;28;20451;-68
2021/08/29 02:15:03;;;;;;;6.43;4.60;;;;;;;;;;5033713;28;20025;-68
2021/08/29 02:17:30;;;;;;;7.40;4.63;;;;;;;;;;5035606;28;20029;-66
2021/08/29 02:19:57;;;;;;;8.05;4.63;;;;;;;;;;5040328;28;20552;-67
2021/08/29 02:22:24;;;;;;;7.07;5.03;;;;;;;;;;5035738;28;20578;-67
2021/08/29 02:24:50;;;;;;;5.63;4.28;;;;;;;;;;5038569;28;20032;-67
2021/08/29 02:27:16;;;;;;;10.18;5.13;;;;;;;;;;5030746;28;20013;-67
2021/08/29 02:29:43;;;;;;;6.78;4.72;;;;;;;;;;5035821;28;20036;-67
2021/08/29 02:32:10;;;;;;;8.02;4.72;;;;;;;;;;5027583;28;20025;-67
2021/08/29 02:34:36;;;;;;;8.70;4.78;;;;;;;;;;5035156;28;20048;-67
2021/08/29 02:37:03;;;;;;;10.23;4.45;;;;;;;;;;5036393;28;20025;-67
2021/08/29 02:39:29;;;;;;;6.25;4.40;;;;;;;;;;5033932;28;20471;-67
2021/08/29 02:41:57;;;;;;;7.63;4.60;;;;;;;;;;5035347;28;20070;-67
2021/08/29 02:44:24;;;;;;;9.13;4.35;;;;;;;;;;5034333;28;20033;-67
2021/08/29 02:46:51;;;;;;;15.25;5.13;;;;;;;;;;5038227;28;20110;-67
2021/08/29 02:49:21;;;;;;;6.65;4.25;;;;;;;;;;5025354;28;20029;-67
2021/08/29 02:51:48;;;;;;;6.97;4.35;;;;;;;;;;5038389;28;20376;-67
2021/08/29 02:54:14;;;;;;;9.73;5.00;;;;;;;;;;5025677;28;20571;-67
2021/08/29 02:56:41;;;;;;;9.65;5.40;;;;;;;;;;5036606;28;20040;-67
2021/08/29 02:59:07;;;;;;;7.78;4.50;;;;;;;;;;5037267;28;20087;-67
2021/08/29 03:01:34;;;;;;;6.50;4.63;;;;;;;;;;5033845;28;20022;-67
2021/08/29 03:04:00;;;;;;;6.10;4.05;;;;;;;;;;5029641;28;20136;-68
2021/08/29 03:06:26;;;;;;;7.43;4.78;;;;;;;;;;5032754;28;20037;-67
2021/08/29 03:08:53;;;;;;;8.95;4.63;;;;;;;;;;5035671;28;20025;-67
2021/08/29 03:11:20;;;;;;;6.90;4.55;;;;;;;;;;5035325;28;20039;-67
2021/08/29 03:13:47;;;;;;;10.13;4.65;;;;;;;;;;5039536;28;20028;-67
2021/08/29 03:16:13;;;;;;;9.55;5.13;;;;;;;;;;5036121;28;20362;-67
2021/08/29 03:18:39;;;;;;;7.43;4.13;;;;;;;;;;5039312;28;20713;-67
2021/08/29 03:21:05;;;;;;;10.60;4.85;;;;;;;;;;5039996;28;20720;-67
2021/08/29 03:23:31;;;;;;;6.75;4.68;;;;;;;;;;5036907;28;20029;-66
2021/08/29 03:25:58;;;;;;;9.02;4.68;;;;;;;;;;5035985;28;20048;-67
2021/08/29 03:28:24;;;;;;;11.63;4.90;;;;;;;;;;5038493;28;20025;-67
2021/08/29 03:30:50;;;;;;;10.32;5.00;;;;;;;;;;5035224;28;20037;-67
2021/08/29 03:33:16;;;;;;;7.55;4.80;;;;;;;;;;5033403;28;20048;-67
2021/08/29 03:35:43;;;;;;;8.07;4.90;;;;;;;;;;5034203;28;20421;-67
2021/08/29 03:38:09;;;;;;;7.13;4.63;;;;;;;;;;5034580;28;20039;-67
2021/08/29 03:40:36;;;;;;;6.75;5.50;;;;;;;;;;5035629;28;20041;-67
2021/08/29 03:43:02;;;;;;;9.63;5.13;;;;;;;;;;5027196;28;20032;-67
2021/08/29 03:45:29;;;;;;;6.60;4.22;;;;;;;;;;5037148;28;20477;-66
2021/08/29 03:47:55;;;;;;;8.45;5.10;;;;;;;;;;5030326;28;20030;-67
2021/08/29 03:50:21;;;;;;;7.40;4.90;;;;;;;;;;5031069;28;20033;-69
2021/08/29 03:52:49;;;;;;;9.45;4.90;;;;;;;;;;5034547;28;20029;-67
2021/08/29 03:55:15;;;;;;;10.27;5.40;;;;;;;;;;5038266;28;20106;-67
2021/08/29 03:57:42;;;;;;;7.47;5.10;;;;;;;;;;5033937;28;20024;-67
2021/08/29 04:00:08;;;;;;;11.23;5.20;;;;;;;;;;5039582;28;20045;-67
2021/08/29 04:02:34;;;;;;;9.85;4.72;;;;;;;;;;5035931;28;20021;-66
2021/08/29 04:05:01;;;;;;;10.38;5.10;;;;;;;;;;5027524;28;20045;-66
2021/08/29 04:07:27;;;;;;;8.52;4.78;;;;;;;;;;5026119;28;20034;-66
2021/08/29 04:09:54;;;;;;;13.20;5.18;;;;;;;;;;5032852;28;20025;-69
2021/08/29 04:12:20;;;;;;;10.30;4.85;;;;;;;;;;5038539;28;20029;-67
2021/08/29 04:14:47;;;;;;;5.90;4.30;;;;;;;;;;5032898;28;20025;-66
2021/08/29 04:17:14;;;;;;;6.90;5.00;;;;;;;;;;5028056;28;20028;-66
2021/08/29 04:19:42;;;;;;;9.23;5.43;;;;;;;;;;5035629;28;20123;-66
2021/08/29 04:22:09;;;;;;;8.68;4.88;;;;;;;;;;5033278;28;20029;-67
2021/08/29 04:24:35;;;;;;;9.80;4.90;;;;;;;;;;5037210;28;20021;-67
2021/08/29 04:27:02;;;;;;;10.10;5.97;;;;;;;;;;5035996;28;20025;-66
2021/08/29 04:29:28;;;;;;;9.80;5.40;;;;;;;;;;5028148;28;20039;-66
2021/08/29 04:31:56;;;;;;;13.57;4.90;;;;;;;;;;5033120;28;20041;-66
2021/08/29 04:34:23;;;;;;;10.18;5.43;;;;;;;;;;5030219;28;20056;-66
2021/08/29 04:36:49;;;;;;;7.82;5.25;;;;;;;;;;5028176;28;20033;-67
2021/08/29 04:39:15;;;;;;;8.43;5.10;;;;;;;;;;5028651;28;20560;-66
2021/08/29 04:41:41;;;;;;;7.68;4.70;;;;;;;;;;5036735;28;20033;-66
2021/08/29 04:44:10;;;;;;;11.00;4.85;;;;;;;;;;5034522;28;20060;-66
2021/08/29 04:46:36;;;;;;;8.25;4.82;;;;;;;;;;5037007;28;20417;-67
2021/08/29 04:49:02;;;;;;;11.02;4.90;;;;;;;;;;5024189;28;20091;-66
2021/08/29 04:51:29;;;;;;;8.55;4.72;;;;;;;;;;5035843;28;20420;-66
2021/08/29 04:53:56;;;;;;;8.45;4.65;;;;;;;;;;5037400;28;20170;-66
2021/08/29 04:56:22;;;;;;;9.27;4.93;;;;;;;;;;5028377;28;20047;-66
2021/08/29 04:58:48;;;;;;;10.73;5.85;;;;;;;;;;5036417;28;20560;-67
2021/08/29 05:01:14;;;;;;;9.05;4.65;;;;;;;;;;5031680;28;20037;-66
2021/08/29 05:03:40;;;;;;;6.68;4.70;;;;;;;;;;5033719;28;20112;-66
2021/08/29 05:06:06;;;;;;;7.03;4.38;;;;;;;;;;5030169;28;20043;-66
2021/08/29 05:08:33;;;;;;;8.90;5.18;;;;;;;;;;5032477;28;20090;-66
2021/08/29 05:10:59;;;;;;;10.00;5.32;;;;;;;;;;5027175;28;20417;-66
2021/08/29 05:13:25;;;;;;;9.10;4.55;;;;;;;;;;5033559;28;20389;-67
2021/08/29 05:15:51;;;;;;;10.85;5.43;;;;;;;;;;5037709;28;20530;-67
2021/08/29 05:18:17;;;;;;;10.73;4.38;;;;;;;;;;5032927;28;20059;-66
2021/08/29 05:20:43;;;;;;;9.85;4.28;;;;;;;;;;5031573;28;20029;-66
2021/08/29 05:23:09;;;;;;;6.72;4.85;;;;;;;;;;5038375;28;20032;-67
2021/08/29 05:25:35;;;;;;;6.88;3.72;;;;;;;;;;5032534;28;20033;-66
2021/08/29 05:28:02;;;;;;;11.32;4.03;;;;;;;;;;5036291;28;20028;-66
2021/08/29 05:30:28;;;;;;;5.88;3.90;;;;;;;;;;5025860;28;20532;-66
2021/08/29 05:32:54;;;;;;;8.43;3.80;;;;;;;;;;5036704;28;20024;-67
2021/08/29 05:35:20;;;;;;;6.13;4.07;;;;;;;;;;5037670;28;20035;-66
2021/08/29 05:37:46;;;;;;;9.45;4.20;;;;;;;;;;5035057;28;20043;-69
2021/08/29 05:40:13;;;;;;;5.80;3.88;;;;;;;;;;5036553;28;20045;-66
2021/08/29 05:42:39;;;;;;;8.88;4.13;;;;;;;;;;5030363;28;20025;-66
2021/08/29 05:45:05;;;;;;;7.43;3.50;;;;;;;;;;5027932;28;20034;-66
2021/08/29 05:47:31;;;;;;;5.88;3.53;;;;;;;;;;5030275;28;20036;-66
2021/08/29 05:49:57;;;;;;;7.68;3.60;;;;;;;;;;5027068;28;20032;-67
2021/08/29 05:52:23;;;;;;;9.70;3.75;;;;;;;;;;5035046;28;20047;-66
2021/08/29 05:54:50;;;;;;;6.55;3.35;;;;;;;;;;5034794;28;20404;-66
2021/08/29 05:57:16;;;;;;;5.85;3.72;;;;;;;;;;5038651;28;20037;-66
2021/08/29 05:59:42;;;;;;;6.65;4.00;;;;;;;;;;5029524;28;20041;-67
2021/08/29 06:02:08;;;;;;;7.63;3.92;;;;;;;;;;5034547;28;20041;-66
2021/08/29 06:04:36;;;;;;;13.38;3.72;;;;;;;;;;5027544;28;20029;-67
2021/08/29 06:07:02;;;;;;;8.75;3.58;;;;;;;;;;5018670;28;20057;-66
2021/08/29 06:09:28;;;;;;;8.02;3.95;;;;;;;;;;5020539;28;20208;-67
2021/08/29 06:11:55;;;;;;;6.07;3.45;;;;;;;;;;5031938;28;20025;-66
2021/08/29 06:14:21;;;;;;;7.38;3.45;;;;;;;;;;5034164;28;20079;-66
2021/08/29 06:16:47;;;;;;;7.25;3.42;;;;;;;;;;5025588;28;20410;-66
2021/08/29 06:19:13;;;;;;;8.02;3.50;;;;;;;;;;5035489;28;20029;-66
2021/08/29 06:21:40;;;;;;;9.68;3.80;;;;;;;;;;5037645;28;20072;-66
2021/08/29 06:24:06;;;;;;;8.50;3.95;;;;;;;;;;5028255;28;20029;-66
2021/08/29 06:26:32;;;;;;;10.60;4.07;;;;;;;;;;5030629;28;20032;-66
2021/08/29 06:28:58;;;;;;;8.80;4.00;;;;;;;;;;5029935;28;20044;-66
2021/08/29 06:31:24;;;;;;;6.28;3.97;;;;;;;;;;5036793;28;20082;-66
2021/08/29 06:33:50;;;;;;;10.50;3.67;;;;;;;;;;5034344;28;20025;-66
2021/08/29 06:36:17;;;;;;;6.78;3.85;;;;;;;;;;5028202;28;20037;-66
2021/08/29 06:38:43;;;;;;;9.32;5.13;;;;;;;;;;5029165;28;20051;-67
2021/08/29 06:41:09;;;;;;;11.82;5.22;;;;;;;;;;5027940;28;20069;-66
2021/08/29 06:43:35;;;;;;;11.15;5.05;;;;;;;;;;5036617;28;20036;-66
2021/08/29 06:46:01;;;;;;;8.85;4.80;;;;;;;;;;5029625;28;20534;-67
2021/08/29 06:48:28;;;;;;;8.93;5.40;;;;;;;;;;5035760;28;20052;-66
2021/08/29 06:50:54;;;;;;;10.55;5.18;;;;;;;;;;5033031;28;20055;-67
2021/08/29 06:53:20;;;;;;;6.70;5.22;;;;;;;;;;5037126;28;20032;-67
2021/08/29 06:55:46;;;;;;;10.50;5.15;;;;;;;;;;5033399;28;20110;-67
2021/08/29 06:58:12;;;;;;;6.72;5.15;;;;;;;;;;5020683;28;20045;-67
2021/08/29 07:00:38;;;;;;;10.27;5.00;;;;;;;;;;5035254;28;20049;-66
2021/08/29 07:03:04;;;;;;;10.25;5.25;;;;;;;;;;5029176;28;20045;-66
2021/08/29 07:05:31;;;;;;;10.25;5.10;;;;;;;;;;5024904;28;20608;-66
2021/08/29 07:07:57;;;;;;;9.43;4.90;;;;;;;;;;5027236;28;20072;-66
2021/08/29 07:10:23;;;;;;;11.52;4.85;;;;;;;;;;5027694;28;20033;-67
2021/08/29 07:12:49;;;;;;;10.38;5.05;;;;;;;;;;5034186;28;20060;-67
2021/08/29 07:15:15;;;;;;;8.02;4.70;;;;;;;;;;5034135;28;20065;-67
2021/08/29 07:17:41;;;;;;;9.65;4.80;;;;;;;;;;5033884;28;20443;-66
2021/08/29 07:20:08;;;;;;;7.57;4.28;;;;;;;;;;5031711;28;20037;-66
2021/08/29 07:22:34;;;;;;;9.93;4.40;;;;;;;;;;5019902;28;20040;-67
2021/08/29 07:25:00;;;;;;;12.05;4.88;;;;;;;;;;5038143;28;20024;-66
2021/08/29 07:27:26;;;;;;;9.38;4.40;;;;;;;;;;5019833;28;20022;-66
2021/08/29 07:29:52;;;;;;;9.70;4.60;;;;;;;;;;5031558;28;20032;-66
2021/08/29 07:32:19;;;;;;;9.05;4.65;;;;;;;;;;5029770;28;20025;-67
2021/08/29 07:34:45;;;;;;;9.63;4.00;;;;;;;;;;5035519;28;20190;-66
2021/08/29 07:37:11;;;;;;;9.55;4.68;;;;;;;;;;5035018;28;20033;-66
2021/08/29 07:39:37;;;;;;;8.18;4.13;;;;;;;;;;5020782;28;20048;-67
2021/08/29 07:42:03;;;;;;;9.07;4.00;;;;;;;;;;5039043;28;20028;-69
2021/08/29 07:44:29;;;;;;;13.27;4.68;;;;;;;;;;5023778;28;20226;-69
2021/08/29 07:46:56;;;;;;;8.75;4.38;;;;;;;;;;5038219;28;20036;-68
2021/08/29 07:49:22;;;;;;;6.60;4.40;;;;;;;;;;5034607;28;20110;-68
2021/08/29 07:51:48;;;;;;;11.15;4.53;;;;;;;;;;5039012;28;20116;-68
2021/08/29 07:54:14;;;;;;;13.35;4.80;;;;;;;;;;5034738;28;20037;-68
2021/08/29 07:56:40;;;;;;;9.63;4.60;;;;;;;;;;5030813;28;20053;-68
2021/08/29 07:59:06;;;;;;;9.80;4.72;;;;;;;;;;5022826;28;20566;-69
2021/08/29 08:01:32;;;;;;;12.23;4.20;;;;;;;;;;5021674;28;20579;-69
2021/08/29 08:03:59;;;;;;;11.07;3.80;;;;;;;;;;5023599;28;20025;-68
2021/08/29 08:06:25;;;;;;;8.25;3.55;;;;;;;;;;5031416;28;20045;-68
2021/08/29 08:08:51;;;;;;;9.10;3.92;;;;;;;;;;5022562;28;20025;-70
2021/08/29 08:11:17;;;;;;;7.80;3.33;;;;;;;;;;5032433;28;20031;-68
2021/08/29 08:13:43;;;;;;;8.60;4.03;;;;;;;;;;5036896;28;20071;-69
2021/08/29 08:16:09;;;;;;;8.07;3.97;;;;;;;;;;5031340;28;20912;-73
2021/08/29 08:18:35;;;;;;;9.32;3.65;;;;;;;;;;5033149;28;20389;-68
2021/08/29 08:21:02;;;;;;;9.05;3.70;;;;;;;;;;5035851;28;20108;-69
2021/08/29 08:23:28;;;;;;;9.02;3.33;;;;;;;;;;5041806;28;20181;-67
2021/08/29 08:25:54;;;;;;;6.72;3.50;;;;;;;;;;5034628;28;20063;-68
2021/08/29 08:28:20;;;;;;;10.25;3.85;;;;;;;;;;5043018;28;20025;-68
2021/08/29 08:30:46;;;;;;;12.82;3.88;;;;;;;;;;5031821;28;20108;-68
2021/08/29 08:33:13;;;;;;;10.95;3.67;;;;;;;;;;5033765;28;20527;-69
2021/08/29 08:35:40;;;;;;;6.28;3.15;;;;;;;;;;5025419;28;20026;-69
2021/08/29 08:38:06;;;;;;;8.30;3.20;;;;;;;;;;5035592;28;20474;-70
2021/08/29 08:40:38;;;;;;;9.68;3.45;;;;;;;;;;5030335;28;20033;-69
2021/08/29 08:43:05;;;;;;;8.93;3.67;;;;;;;;;;5034405;28;20381;-70
2021/08/29 08:45:31;;;;;;;8.55;3.65;;;;;;;;;;5037566;28;20021;-69
2021/08/29 08:48:00;;;;;;;8.63;3.35;;;;;;;;;;5037324;28;20033;-69
2021/08/29 08:50:27;;;;;;;8.68;3.05;;;;;;;;;;5034185;28;20397;-69
2021/08/29 08:52:56;;;;;;;8.70;3.67;;;;;;;;;;5035071;28;20061;-69
2021/08/29 08:55:23;;;;;;;6.05;3.17;;;;;;;;;;5027498;28;20052;-69
2021/08/29 08:57:49;;;;;;;9.00;3.38;;;;;;;;;;5034654;28;20486;-69
2021/08/29 09:00:15;;;;;;;10.13;4.22;;;;;;;;;;5026247;28;20052;-69
2021/08/29 09:02:42;;;;;;;6.22;3.38;;;;;;;;;;5033453;28;20025;-69
2021/08/29 09:05:09;;;;;;;8.82;3.55;;;;;;;;;;5025876;28;20691;-69
2021/08/29 09:07:35;;;;;;;8.68;3.92;;;;;;;;;;5023511;28;20152;-70
2021/08/29 09:10:02;;;;;;;7.88;3.28;;;;;;;;;;5034817;28;20079;-70
2021/08/29 09:12:28;;;;;;;8.10;3.50;;;;;;;;;;5036397;28;20032;-70
2021/08/29 09:14:57;;;;;;;9.52;3.30;;;;;;;;;;5031951;28;20025;-71
2021/08/29 09:17:25;;;;;;;10.48;4.05;;;;;;;;;;5037700;28;20041;-70
2021/08/29 09:19:51;;;;;;;7.10;3.08;;;;;;;;;;5035716;28;20040;-72
2021/08/29 09:22:27;;;;;;;9.73;4.15;;;;;;;;;;5034383;28;20021;-71
2021/08/29 09:24:54;;;;;;;10.82;4.10;;;;;;;;;;5031339;28;20029;-71
2021/08/29 09:27:24;;;;;;;23.27;10.35;;;;;;;;;;5031439;28;20029;-76
2021/08/29 09:29:51;;;;;;;7.45;3.72;;;;;;;;;;5030544;28;20024;-71
2021/08/29 09:32:21;;;;;;;11.20;3.65;;;;;;;;;;5038482;28;20029;-71
2021/08/29 09:34:57;;;;;;;7.32;3.30;;;;;;;;;;5030298;28;20021;-70
2021/08/29 09:37:23;;;;;;;15.18;4.35;;;;;;;;;;5030795;28;20555;-71
2021/08/29 09:39:50;;;;;;;8.15;3.78;;;;;;;;;;5036275;28;20186;-70
2021/08/29 09:42:16;;;;;;;7.93;3.20;;;;;;;;;;5033196;28;20028;-70
2021/08/29 09:44:42;;;;;;;12.00;3.72;;;;;;;;;;5035299;28;20032;-71
2021/08/29 09:47:12;;;;;;;9.98;3.35;;;;;;;;;;5033814;28;20037;-70
2021/08/29 09:49:38;;;;;;;8.95;3.65;;;;;;;;;;5035710;28;20606;-70
2021/08/29 09:52:05;;;;;;;9.60;3.95;;;;;;;;;;5032292;28;20104;-71
2021/08/29 09:54:31;;;;;;;6.13;3.28;;;;;;;;;;5029612;28;20044;-70
2021/08/29 09:56:59;;;;;;;12.48;4.22;;;;;;;;;;5031479;28;20032;-70
2021/08/29 09:59:43;;;;;;;8.13;3.70;;;;;;;;;;5029453;28;20040;-70
2021/08/29 10:02:11;;;;;;;9.50;3.55;;;;;;;;;;5032294;28;20036;-70
2021/08/29 10:04:39;;;;;;;7.25;3.50;;;;;;;;;;5020261;28;20079;-70
2021/08/29 10:07:12;;;;;;;8.70;3.70;;;;;;;;;;5029949;28;20029;-70
2021/08/29 10:09:39;;;;;;;10.70;4.05;;;;;;;;;;5031917;28;20098;-71
2021/08/29 10:12:05;;;;;;;7.47;3.42;;;;;;;;;;5034126;28;20025;-71
2021/08/29 10:14:33;;;;;;;6.97;3.55;;;;;;;;;;5023324;28;20087;-70
2021/08/29 10:16:59;;;;;;;7.55;4.05;;;;;;;;;;5032729;28;20578;-70
2021/08/29 10:19:27;;;;;;;10.07;3.65;;;;;;;;;;5030963;28;20048;-71
2021/08/29 10:21:53;;;;;;;9.63;4.25;;;;;;;;;;5026785;28;20028;-70
2021/08/29 10:24:20;;;;;;;9.85;4.03;;;;;;;;;;5037444;28;20040;-70
2021/08/29 10:26:49;;;;;;;9.25;4.32;;;;;;;;;;5029559;28;20039;-71
2021/08/29 10:29:18;;;;;;;7.40;3.55;;;;;;;;;;5022064;28;20029;-71
2021/08/29 10:31:48;;;;;;;8.70;3.45;;;;;;;;;;5032801;28;20398;-70
2021/08/29 10:34:15;;;;;;;7.75;3.95;;;;;;;;;;5034483;28;20029;-71
2021/08/29 10:36:41;;;;;;;8.20;3.70;;;;;;;;;;5031899;28;20036;-70
2021/08/29 10:39:08;;;;;;;8.52;4.15;;;;;;;;;;5034989;28;20121;-71
2021/08/29 10:41:34;;;;;;;7.75;3.85;;;;;;;;;;5026163;28;20043;-71
2021/08/29 10:44:00;;;;;;;7.40;3.47;;;;;;;;;;5034617;28;20112;-70
2021/08/29 10:46:27;;;;;;;10.18;4.32;;;;;;;;;;5030278;28;20132;-70
2021/08/29 10:48:54;;;;;;;8.30;4.35;;;;;;;;;;5038474;28;20033;-69
2021/08/29 10:51:25;;;;;;;9.85;4.40;;;;;;;;;;5025697;28;20032;-68
2021/08/29 10:53:52;;;;;;;8.15;4.03;;;;;;;;;;5034125;28;20014;-68
2021/08/29 10:56:18;;;;;;;6.50;4.25;;;;;;;;;;5029544;28;20088;-68
2021/08/29 10:58:48;;;;;;;9.35;3.95;;;;;;;;;;5034423;28;20090;-69
2021/08/29 11:01:34;;;;;;;9.57;3.90;;;;;;;;;;5030703;28;20037;-70
2021/08/29 11:04:00;;;;;;;9.82;4.03;;;;;;;;;;5018906;28;20262;-68
2021/08/29 11:06:46;;;;;;;9.20;4.10;;;;;;;;;;5019063;28;20029;-68
2021/08/29 11:09:30;;;;;;;8.05;4.32;;;;;;;;;;5022794;28;20052;-68
2021/08/29 11:11:56;;;;;;;8.25;4.32;;;;;;;;;;5022170;28;20025;-68
2021/08/29 11:14:38;;;;;;;9.27;3.92;;;;;;;;;;5030127;28;20049;-68
2021/08/29 11:17:10;;;;;;;8.13;3.90;;;;;;;;;;5025153;28;20389;-69
2021/08/29 11:19:41;;;;;;;7.22;3.80;;;;;;;;;;5030035;28;20148;-68
2021/08/29 11:22:07;;;;;;;9.35;3.97;;;;;;;;;;5031847;28;20958;-69
2021/08/29 11:24:52;;;;;;;7.00;3.67;;;;;;;;;;5035106;28;20082;-69
2021/08/29 11:27:39;;;;;;;7.60;4.47;;;;;;;;;;5035798;28;20105;-68
2021/08/29 11:30:05;;;;;;;5.70;3.70;;;;;;;;;;5032483;28;20040;-68
2021/08/29 11:32:33;;;;;;;7.50;4.28;;;;;;;;;;5034928;28;20025;-68
2021/08/29 11:35:05;;;;;;;8.27;3.72;;;;;;;;;;5035327;28;20029;-68
2021/08/29 11:37:31;;;;;;;8.40;4.47;;;;;;;;;;5027824;28;20018;-69
2021/08/29 11:40:02;;;;;;;5.68;3.25;;;;;;;;;;5030645;28;20358;-67
2021/08/29 11:42:28;;;;;;;6.27;3.70;;;;;;;;;;5030312;28;20028;-67
2021/08/29 11:44:55;;;;;;;8.85;4.10;;;;;;;;;;5038408;28;20099;-68
2021/08/29 11:47:25;;;;;;;7.88;4.32;;;;;;;;;;5027407;28;20025;-67
2021/08/29 11:49:55;;;;;;;9.30;3.80;;;;;;;;;;5029348;28;20084;-68
2021/08/29 11:52:28;;;;;;;10.57;3.65;;;;;;;;;;5023027;28;20548;-68
2021/08/29 11:55:23;;;;;;;10.05;3.45;;;;;;;;;;5027729;28;20037;-67
2021/08/29 11:57:50;;;;;;;8.93;3.75;;;;;;;;;;5029178;28;20521;-69
2021/08/29 12:00:18;;;;;;;6.65;3.50;;;;;;;;;;5034072;28;20076;-70
2021/08/29 12:02:45;;;;;;;6.30;3.35;;;;;;;;;;5037912;28;20148;-67
2021/08/29 12:05:13;;;;;;;6.78;3.60;;;;;;;;;;5032833;28;20026;-68
2021/08/29 12:07:45;;;;;;;7.25;3.65;;;;;;;;;;5030307;28;20543;-68
2021/08/29 12:10:12;;;;;;;7.22;3.67;;;;;;;;;;5031600;28;20041;-68
2021/08/29 12:12:39;;;;;;;6.60;3.28;;;;;;;;;;5039736;28;20737;-68
2021/08/29 12:15:06;;;;;;;6.00;3.35;;;;;;;;;;5031437;28;20112;-69
2021/08/29 12:17:33;;;;;;;5.80;3.63;;;;;;;;;;5041002;28;20033;-70
2021/08/29 12:19:59;;;;;;;8.23;3.10;;;;;;;;;;5036022;28;20047;-70
2021/08/29 12:22:25;;;;;;;12.13;3.78;;;;;;;;;;5032473;28;20026;-70
2021/08/29 12:24:52;;;;;;;9.30;3.25;;;;;;;;;;5032338;28;20036;-70
2021/08/29 12:27:21;;;;;;;23.75;6.40;;;;;;;;;;5024094;28;20028;-71
2021/08/29 12:29:52;;;;;;;7.63;3.50;;;;;;;;;;5034027;28;20435;-71
2021/08/29 12:32:19;;;;;;;11.50;3.85;;;;;;;;;;5024091;28;20644;-70
2021/08/29 12:34:56;;;;;;;11.60;3.55;;;;;;;;;;5024738;28;20040;-69
2021/08/29 12:37:22;;;;;;;15.20;4.32;;;;;;;;;;5029351;28;20021;-72
2021/08/29 12:40:16;;;;;;;5.72;3.10;;;;;;;;;;5023315;28;20443;-69
2021/08/29 12:42:43;;;;;;;10.75;3.45;;;;;;;;;;5025177;28;20041;-69
2021/08/29 12:45:10;;;;;;;8.82;3.03;;;;;;;;;;5026704;28;20044;-70
2021/08/29 12:47:38;;;;;;;5.45;2.92;;;;;;;;;;5036312;28;20030;-70
2021/08/29 12:50:05;;;;;;;6.20;3.60;;;;;;;;;;5024490;28;20068;-69
2021/08/29 12:52:33;;;;;;;5.97;3.15;;;;;;;;;;5026052;28;20033;-74
2021/08/29 12:55:03;;;;;;;9.55;5.03;;;;;;;;;;5024371;28;20049;-69
2021/08/29 12:57:29;;;;;;;8.70;3.20;;;;;;;;;;5033280;28;20033;-70
2021/08/29 12:59:56;;;;;;;8.05;2.97;;;;;;;;;;5037235;28;20072;-70
2021/08/29 13:02:23;;;;;;;4.43;2.83;;;;;;;;;;5032752;28;20646;-69
2021/08/29 13:04:50;;;;;;;4.10;2.75;;;;;;;;;;5029829;28;20079;-71
2021/08/29 13:07:17;;;;;;;5.63;2.72;;;;;;;;;;5022006;28;20040;-70
2021/08/29 13:09:43;;;;;;;3.83;2.60;;;;;;;;;;5024303;28;20034;-70
2021/08/29 13:12:21;;;;;;;7.28;2.67;;;;;;;;;;5035373;28;20800;-69
2021/08/29 13:14:48;;;;;;;4.07;2.70;;;;;;;;;;5031524;28;20053;-70
2021/08/29 13:17:14;;;;;;;5.75;2.90;;;;;;;;;;5030965;28;20034;-70
2021/08/29 13:19:41;;;;;;;6.78;2.75;;;;;;;;;;5029326;28;20037;-70
2021/08/29 13:22:07;;;;;;;5.07;2.85;;;;;;;;;;5023429;28;20108;-70
2021/08/29 13:24:35;;;;;;;5.10;3.22;;;;;;;;;;5033907;28;20072;-72
2021/08/29 13:27:02;;;;;;;5.38;2.70;;;;;;;;;;5029200;28;20195;-70
2021/08/29 13:29:35;;;;;;;4.13;2.78;;;;;;;;;;5033958;28;20139;-70
2021/08/29 13:32:02;;;;;;;6.18;2.83;;;;;;;;;;5033716;28;20033;-70
2021/08/29 13:34:31;;;;;;;5.57;2.90;;;;;;;;;;5033912;28;20668;-70
2021/08/29 13:36:57;;;;;;;5.82;3.08;;;;;;;;;;5035609;28;20019;-70
2021/08/29 13:39:25;;;;;;;6.07;3.13;;;;;;;;;;5029249;28;20039;-70
2021/08/29 13:42:11;;;;;;;5.60;2.80;;;;;;;;;;5036770;28;20037;-70
2021/08/29 13:44:42;;;;;;;8.20;2.80;;;;;;;;;;5032410;28;20480;-70
2021/08/29 13:47:09;;;;;;;4.60;2.80;;;;;;;;;;5027922;28;20660;-69
2021/08/29 13:49:35;;;;;;;5.47;2.42;;;;;;;;;;5028838;28;20025;-70
2021/08/29 13:52:01;;;;;;;6.88;3.10;;;;;;;;;;5036894;28;20082;-70
2021/08/29 13:54:27;;;;;;;6.70;2.70;;;;;;;;;;5030321;28;20026;-70
2021/08/29 13:56:53;;;;;;;4.82;2.70;;;;;;;;;;5033920;28;20048;-69
2021/08/29 13:59:19;;;;;;;6.55;3.00;;;;;;;;;;5034040;28;20086;-69
2021/08/29 14:01:46;;;;;;;5.43;2.92;;;;;;;;;;5026801;28;20025;-70
2021/08/29 14:04:12;;;;;;;5.68;3.05;;;;;;;;;;5031544;28;20036;-70
2021/08/29 14:06:38;;;;;;;4.60;2.70;;;;;;;;;;5027931;28;20548;-69
2021/08/29 14:09:04;;;;;;;4.50;2.63;;;;;;;;;;5027309;28;20024;-75
2021/08/29 14:11:30;;;;;;;7.50;2.80;;;;;;;;;;5030220;28;20026;-70
2021/08/29 14:13:56;;;;;;;5.85;2.88;;;;;;;;;;5031809;28;20079;-70
2021/08/29 14:16:22;;;;;;;5.18;2.63;;;;;;;;;;5027465;28;20031;-70
2021/08/29 14:18:49;;;;;;;6.00;2.42;;;;;;;;;;5034010;28;20029;-69
2021/08/29 14:21:17;;;;;;;4.43;2.10;;;;;;;;;;5030962;28;20097;-70
2021/08/29 14:23:43;;;;;;;10.80;3.00;;;;;;;;;;5034254;28;20635;-70
2021/08/29 14:26:09;;;;;;;4.78;2.95;;;;;;;;;;5020631;28;20402;-70
2021/08/29 14:28:35;;;;;;;6.85;2.80;;;;;;;;;;5029603;28;20028;-70
2021/08/29 14:31:02;;;;;;;3.90;2.92;;;;;;;;;;5027674;28;20652;-70
2021/08/29 14:33:28;;;;;;;6.57;2.80;;;;;;;;;;5037394;28;20048;-71
2021/08/29 14:35:54;;;;;;;9.80;3.25;;;;;;;;;;5029519;28;20044;-70
2021/08/29 14:38:20;;;;;;;7.43;2.53;;;;;;;;;;5036640;28;20055;-70
2021/08/29 14:40:47;;;;;;;10.15;2.55;;;;;;;;;;5026907;28;20480;-71
2021/08/29 14:43:13;;;;;;;4.38;2.35;;;;;;;;;;5028222;28;20067;-70